createdAt,value
2018-04-27T00:00:26.958Z,85.95
2018-04-27T00:01:32.474Z,85.81
2018-04-27T00:02:37.989Z,85.91
2018-04-27T00:03:43.491Z,86.00
2018-04-27T00:04:49.005Z,86.19
2018-04-27T00:05:54.511Z,86.47
2018-04-27T00:07:00.019Z,86.10
2018-04-27T00:08:05.541Z,86.67
2018-04-27T00:09:11.053Z,86.67
2018-04-27T00:10:16.569Z,86.19
2018-04-27T00:11:22.056Z,86.38
2018-04-27T00:12:27.583Z,86.29
2018-04-27T00:13:33.076Z,87.05
2018-04-27T00:14:38.642Z,86.86
2018-04-27T00:15:44.095Z,86.19
2018-04-27T00:16:49.604Z,86.10
2018-04-27T00:17:55.114Z,86.57
2018-04-27T00:19:00.625Z,86.67
2018-04-27T00:20:06.146Z,86.00
2018-04-27T00:21:11.644Z,86.19
2018-04-27T00:22:17.156Z,86.29
2018-04-27T00:23:22.673Z,86.67
2018-04-27T00:24:28.174Z,86.38
2018-04-27T00:25:33.681Z,86.19
2018-04-27T00:26:39.199Z,86.00
2018-04-27T00:27:44.705Z,86.29
2018-04-27T00:28:50.214Z,86.19
2018-04-27T00:29:55.724Z,86.57
2018-04-27T00:31:01.241Z,86.57
2018-04-27T00:32:06.755Z,86.10
2018-04-27T00:33:12.250Z,86.10
2018-04-27T00:34:17.770Z,86.19
2018-04-27T00:35:23.274Z,86.10
2018-04-27T00:36:28.787Z,86.10
2018-04-27T00:37:34.293Z,86.10
2018-04-27T00:38:39.801Z,86.00
2018-04-27T00:39:45.313Z,85.62
2018-04-27T00:40:50.820Z,85.62
2018-04-27T00:41:56.333Z,85.43
2018-04-27T00:43:01.838Z,85.62
2018-04-27T00:44:07.353Z,85.53
2018-04-27T00:45:12.864Z,85.53
2018-04-27T00:46:18.378Z,86.29
2018-04-27T00:47:23.883Z,86.29
2018-04-27T00:48:29.389Z,86.38
2018-04-27T00:49:34.904Z,86.00
2018-04-27T00:50:40.409Z,86.19
2018-04-27T00:51:45.915Z,87.05
2018-04-27T00:52:51.427Z,86.67
2018-04-27T00:53:56.940Z,86.76
2018-04-27T00:55:02.457Z,87.05
2018-04-27T00:56:07.959Z,86.67
2018-04-27T00:57:13.474Z,86.00
2018-04-27T00:58:18.977Z,85.91
2018-04-27T00:59:24.501Z,86.67
2018-04-27T01:00:29.994Z,86.19
2018-04-27T01:01:35.517Z,86.38
2018-04-27T01:02:41.015Z,86.19
2018-04-27T01:03:46.534Z,86.00
2018-04-27T01:04:52.034Z,85.91
2018-04-27T01:05:57.543Z,86.38
2018-04-27T01:07:03.051Z,86.57
2018-04-27T01:08:08.562Z,86.29
2018-04-27T01:09:14.072Z,86.29
2018-04-27T01:10:19.589Z,86.29
2018-04-27T01:11:25.098Z,86.29
2018-04-27T01:12:30.607Z,85.72
2018-04-27T01:13:36.111Z,85.62
2018-04-27T01:14:41.631Z,85.81
2018-04-27T01:15:47.128Z,86.29
2018-04-27T01:16:52.639Z,86.19
2018-04-27T01:17:58.152Z,86.00
2018-04-27T01:19:03.659Z,86.86
2018-04-27T01:20:09.170Z,86.67
2018-04-27T01:21:14.677Z,86.95
2018-04-27T01:22:20.194Z,86.86
2018-04-27T01:23:25.709Z,87.34
2018-04-27T01:24:31.214Z,87.43
2018-04-27T01:25:36.722Z,87.34
2018-04-27T01:26:42.225Z,87.62
2018-04-27T01:27:47.740Z,87.52
2018-04-27T01:28:53.245Z,87.24
2018-04-27T01:29:58.751Z,87.34
2018-04-27T01:31:04.272Z,87.34
2018-04-27T01:32:09.774Z,87.34
2018-04-27T01:33:15.311Z,87.24
2018-04-27T01:34:20.806Z,87.34
2018-04-27T01:35:26.306Z,87.34
2018-04-27T01:36:31.812Z,87.43
2018-04-27T01:37:37.316Z,87.24
2018-04-27T01:38:42.828Z,87.14
2018-04-27T01:39:48.335Z,87.43
2018-04-27T01:40:53.848Z,87.52
2018-04-27T01:41:59.355Z,87.62
2018-04-27T01:43:04.868Z,87.34
2018-04-27T01:44:10.377Z,86.95
2018-04-27T01:45:15.889Z,87.34
2018-04-27T01:46:21.401Z,87.43
2018-04-27T01:47:26.915Z,87.52
2018-04-27T01:48:32.438Z,87.57
2018-04-27T01:49:37.926Z,86.95
2018-04-27T01:50:43.433Z,87.24
2018-04-27T01:51:48.946Z,87.34
2018-04-27T01:52:54.452Z,87.34
2018-04-27T01:53:59.968Z,87.43
2018-04-27T01:55:05.478Z,87.52
2018-04-27T01:56:10.987Z,87.43
2018-04-27T01:57:16.508Z,87.24
2018-04-27T01:58:22.004Z,87.34
2018-04-27T01:59:27.514Z,86.95
2018-04-27T02:00:33.020Z,87.34
2018-04-27T02:01:38.529Z,87.34
2018-04-27T02:02:44.047Z,87.34
2018-04-27T02:03:49.550Z,87.29
2018-04-27T02:04:55.060Z,87.34
2018-04-27T02:06:00.626Z,87.14
2018-04-27T02:07:06.075Z,87.43
2018-04-27T02:08:11.595Z,87.62
2018-04-27T02:09:17.094Z,87.24
2018-04-27T02:10:22.603Z,87.34
2018-04-27T02:11:28.223Z,87.52
2018-04-27T02:12:33.625Z,87.52
2018-04-27T02:13:39.135Z,87.34
2018-04-27T02:14:44.656Z,87.48
2018-04-27T02:15:50.154Z,87.34
2018-04-27T02:16:55.666Z,87.52
2018-04-27T02:18:01.173Z,87.43
2018-04-27T02:19:06.689Z,87.81
2018-04-27T02:20:12.194Z,87.62
2018-04-27T02:21:17.721Z,87.90
2018-04-27T02:22:23.210Z,87.43
2018-04-27T02:23:28.724Z,87.34
2018-04-27T02:24:34.227Z,87.43
2018-04-27T02:25:39.763Z,87.62
2018-04-27T02:26:45.267Z,87.24
2018-04-27T02:27:50.755Z,87.05
2018-04-27T02:28:56.266Z,87.71
2018-04-27T02:30:01.796Z,87.24
2018-04-27T02:31:07.287Z,87.43
2018-04-27T02:32:12.801Z,87.62
2018-04-27T02:33:18.309Z,87.43
2018-04-27T02:34:23.811Z,87.52
2018-04-27T02:35:29.338Z,87.24
2018-04-27T02:36:34.829Z,87.05
2018-04-27T02:37:40.350Z,87.14
2018-04-27T02:38:45.936Z,86.67
2018-04-27T02:39:51.365Z,86.86
2018-04-27T02:40:56.870Z,86.86
2018-04-27T02:42:02.489Z,87.14
2018-04-27T02:43:07.888Z,86.86
2018-04-27T02:44:13.438Z,86.86
2018-04-27T02:45:18.907Z,86.86
2018-04-27T02:46:24.413Z,86.86
2018-04-27T02:47:29.926Z,86.38
2018-04-27T02:48:35.433Z,86.00
2018-04-27T02:49:40.948Z,85.91
2018-04-27T02:50:46.457Z,86.00
2018-04-27T02:51:51.971Z,86.15
2018-04-27T02:52:57.473Z,86.29
2018-04-27T02:54:02.987Z,86.67
2018-04-27T02:55:08.493Z,86.19
2018-04-27T02:56:14.004Z,86.38
2018-04-27T02:57:19.515Z,86.38
2018-04-27T02:58:25.019Z,87.05
2018-04-27T02:59:30.532Z,86.86
2018-04-27T03:00:36.044Z,86.67
2018-04-27T03:01:41.550Z,86.67
2018-04-27T03:02:47.057Z,86.57
2018-04-27T03:03:52.566Z,86.95
2018-04-27T03:04:58.087Z,86.76
2018-04-27T03:06:03.587Z,86.86
2018-04-27T03:07:09.095Z,86.29
2018-04-27T03:08:14.603Z,86.29
2018-04-27T03:09:20.115Z,86.29
2018-04-27T03:10:25.633Z,86.19
2018-04-27T03:11:31.135Z,86.67
2018-04-27T03:12:36.644Z,87.05
2018-04-27T03:13:42.154Z,86.86
2018-04-27T03:14:47.664Z,86.67
2018-04-27T03:15:53.167Z,86.86
2018-04-27T03:16:58.681Z,86.67
2018-04-27T03:18:04.191Z,86.95
2018-04-27T03:19:09.694Z,86.67
2018-04-27T03:20:15.207Z,86.76
2018-04-27T03:21:20.720Z,86.57
2018-04-27T03:22:26.312Z,87.05
2018-04-27T03:23:31.742Z,86.29
2018-04-27T03:24:37.333Z,86.19
2018-04-27T03:25:42.756Z,86.38
2018-04-27T03:26:48.263Z,86.19
2018-04-27T03:27:53.843Z,85.91
2018-04-27T03:28:59.285Z,85.34
2018-04-27T03:30:04.799Z,85.72
2018-04-27T03:31:10.308Z,85.91
2018-04-27T03:32:15.813Z,85.81
2018-04-27T03:33:21.326Z,85.62
2018-04-27T03:34:26.974Z,85.62
2018-04-27T03:35:32.337Z,85.43
2018-04-27T03:36:37.850Z,85.81
2018-04-27T03:37:43.362Z,86.00
2018-04-27T03:38:48.871Z,85.81
2018-04-27T03:39:54.383Z,85.91
2018-04-27T03:40:59.954Z,85.91
2018-04-27T03:42:05.395Z,85.53
2018-04-27T03:43:10.910Z,85.91
2018-04-27T03:44:16.419Z,85.77
2018-04-27T03:45:22.014Z,85.77
2018-04-27T03:46:27.435Z,85.68
2018-04-27T03:47:32.944Z,85.96
2018-04-27T03:48:38.457Z,86.15
2018-04-27T03:49:43.964Z,86.34
2018-04-27T03:50:49.473Z,85.68
2018-04-27T03:51:55.000Z,85.77
2018-04-27T03:53:00.489Z,85.77
2018-04-27T03:54:06.002Z,86.24
2018-04-27T03:55:11.507Z,86.53
2018-04-27T03:56:17.019Z,86.15
2018-04-27T03:57:22.530Z,86.34
2018-04-27T03:58:28.043Z,86.43
2018-04-27T03:59:33.548Z,86.76
2018-04-27T04:00:39.064Z,86.53
2018-04-27T04:01:44.567Z,86.72
2018-04-27T04:02:50.161Z,86.38
2018-04-27T04:03:55.592Z,86.24
2018-04-27T04:05:01.096Z,85.96
2018-04-27T04:06:06.602Z,86.15
2018-04-27T04:07:12.110Z,86.24
2018-04-27T04:08:17.628Z,85.96
2018-04-27T04:09:23.133Z,85.58
2018-04-27T04:10:28.638Z,85.68
2018-04-27T04:11:34.150Z,85.58
2018-04-27T04:12:39.655Z,85.86
2018-04-27T04:13:45.167Z,85.86
2018-04-27T04:14:50.685Z,85.77
2018-04-27T04:15:56.183Z,85.77
2018-04-27T04:17:01.693Z,85.58
2018-04-27T04:18:07.271Z,85.30
2018-04-27T04:19:12.711Z,85.39
2018-04-27T04:20:18.224Z,85.49
2018-04-27T04:21:23.732Z,85.58
2018-04-27T04:22:29.244Z,85.58
2018-04-27T04:23:34.748Z,85.58
2018-04-27T04:24:40.259Z,85.39
2018-04-27T04:25:45.772Z,85.86
2018-04-27T04:26:51.279Z,85.86
2018-04-27T04:27:56.784Z,85.49
2018-04-27T04:29:02.297Z,85.30
2018-04-27T04:30:07.811Z,85.86
2018-04-27T04:31:13.312Z,85.77
2018-04-27T04:32:18.902Z,85.77
2018-04-27T04:33:24.332Z,85.77
2018-04-27T04:34:29.843Z,85.58
2018-04-27T04:35:35.349Z,85.77
2018-04-27T04:36:40.861Z,85.58
2018-04-27T04:37:46.375Z,85.77
2018-04-27T04:38:51.886Z,85.77
2018-04-27T04:39:57.386Z,85.20
2018-04-27T04:41:02.901Z,85.58
2018-04-27T04:42:08.405Z,85.77
2018-04-27T04:43:13.937Z,86.34
2018-04-27T04:44:19.426Z,85.49
2018-04-27T04:45:24.940Z,85.96
2018-04-27T04:46:30.447Z,85.96
2018-04-27T04:47:35.953Z,86.15
2018-04-27T04:48:41.464Z,86.63
2018-04-27T04:49:46.978Z,86.24
2018-04-27T04:50:52.496Z,85.86
2018-04-27T04:51:57.990Z,85.86
2018-04-27T04:53:03.496Z,85.49
2018-04-27T04:54:09.006Z,85.49
2018-04-27T04:55:14.512Z,85.39
2018-04-27T04:56:20.028Z,85.96
2018-04-27T04:57:25.538Z,85.68
2018-04-27T04:58:31.042Z,85.77
2018-04-27T04:59:36.582Z,85.58
2018-04-27T05:00:42.078Z,85.58
2018-04-27T05:01:47.569Z,85.77
2018-04-27T05:02:53.107Z,85.58
2018-04-27T05:03:58.590Z,85.77
2018-04-27T05:05:04.102Z,85.77
2018-04-27T05:06:09.609Z,85.68
2018-04-27T05:07:15.119Z,85.58
2018-04-27T05:08:20.657Z,85.68
2018-04-27T05:09:26.142Z,85.39
2018-04-27T05:10:31.758Z,85.30
2018-04-27T05:11:37.153Z,85.77
2018-04-27T05:12:42.665Z,85.49
2018-04-27T05:13:48.185Z,85.39
2018-04-27T05:14:53.701Z,85.30
2018-04-27T05:15:59.192Z,85.86
2018-04-27T05:17:04.712Z,85.77
2018-04-27T05:18:10.209Z,86.15
2018-04-27T05:19:15.726Z,86.63
2018-04-27T05:20:21.224Z,86.53
2018-04-27T05:21:26.739Z,85.96
2018-04-27T05:22:32.245Z,86.91
2018-04-27T05:23:37.757Z,86.82
2018-04-27T05:24:43.266Z,86.72
2018-04-27T05:25:48.774Z,87.10
2018-04-27T05:26:54.308Z,87.62
2018-04-27T05:27:59.796Z,87.19
2018-04-27T05:29:05.308Z,87.24
2018-04-27T05:30:10.816Z,87.29
2018-04-27T05:31:16.326Z,87.34
2018-04-27T05:32:21.828Z,87.43
2018-04-27T05:33:27.351Z,87.43
2018-04-27T05:34:32.853Z,87.24
2018-04-27T05:35:38.354Z,87.43
2018-04-27T05:36:43.868Z,88.00
2018-04-27T05:37:49.377Z,88.00
2018-04-27T05:38:54.885Z,88.00
2018-04-27T05:40:00.429Z,87.81
2018-04-27T05:41:06.060Z,88.00
2018-04-27T05:42:11.415Z,87.90
2018-04-27T05:43:16.925Z,88.28
2018-04-27T05:44:22.431Z,88.09
2018-04-27T05:45:27.941Z,88.67
2018-04-27T05:46:33.457Z,88.47
2018-04-27T05:47:38.977Z,88.09
2018-04-27T05:48:44.471Z,88.47
2018-04-27T05:49:49.980Z,88.61
2018-04-27T05:50:55.495Z,89.09
2018-04-27T05:52:01.006Z,88.71
2018-04-27T05:53:06.508Z,88.95
2018-04-27T05:54:12.014Z,88.71
2018-04-27T05:55:17.544Z,89.00
2018-04-27T05:56:23.042Z,88.80
2018-04-27T05:57:28.549Z,88.71
2018-04-27T05:58:34.060Z,88.90
2018-04-27T05:59:39.649Z,89.18
2018-04-27T06:00:45.080Z,89.28
2018-04-27T06:01:50.601Z,89.09
2018-04-27T06:02:56.093Z,89.00
2018-04-27T06:04:01.606Z,89.28
2018-04-27T06:05:07.131Z,89.18
2018-04-27T06:06:12.641Z,89.09
2018-04-27T06:07:18.149Z,89.42
2018-04-27T06:08:23.652Z,89.80
2018-04-27T06:09:29.150Z,89.32
2018-04-27T06:10:34.666Z,89.61
2018-04-27T06:11:40.173Z,89.99
2018-04-27T06:12:45.688Z,89.51
2018-04-27T06:13:51.191Z,89.51
2018-04-27T06:14:56.719Z,89.99
2018-04-27T06:16:02.228Z,89.70
2018-04-27T06:17:07.723Z,89.80
2018-04-27T06:18:13.242Z,89.89
2018-04-27T06:19:18.751Z,89.80
2018-04-27T06:20:24.256Z,89.89
2018-04-27T06:21:29.766Z,90.18
2018-04-27T06:22:35.274Z,89.56
2018-04-27T06:23:40.784Z,89.75
2018-04-27T06:24:46.292Z,89.18
2018-04-27T06:25:51.804Z,89.08
2018-04-27T06:26:57.319Z,89.37
2018-04-27T06:28:02.833Z,89.27
2018-04-27T06:29:08.338Z,89.27
2018-04-27T06:30:13.854Z,89.37
2018-04-27T06:31:19.355Z,89.37
2018-04-27T06:32:24.869Z,88.89
2018-04-27T06:33:30.391Z,89.37
2018-04-27T06:34:35.892Z,88.51
2018-04-27T06:35:41.469Z,88.42
2018-04-27T06:36:46.917Z,88.70
2018-04-27T06:37:52.424Z,88.89
2018-04-27T06:38:57.932Z,88.60
2018-04-27T06:40:03.449Z,89.37
2018-04-27T06:41:08.954Z,88.89
2018-04-27T06:42:14.462Z,88.79
2018-04-27T06:43:20.009Z,88.27
2018-04-27T06:44:25.487Z,88.84
2018-04-27T06:45:30.994Z,88.32
2018-04-27T06:46:36.504Z,88.65
2018-04-27T06:47:42.016Z,89.41
2018-04-27T06:48:47.527Z,88.84
2018-04-27T06:49:53.044Z,88.46
2018-04-27T06:50:58.556Z,88.08
2018-04-27T06:52:04.063Z,88.18
2018-04-27T06:53:09.574Z,87.60
2018-04-27T06:54:15.083Z,87.60
2018-04-27T06:55:20.591Z,87.51
2018-04-27T06:56:26.115Z,87.60
2018-04-27T06:57:31.615Z,87.23
2018-04-27T06:58:37.126Z,87.07
2018-04-27T06:59:42.645Z,86.88
2018-04-27T07:00:48.158Z,86.51
2018-04-27T07:01:53.660Z,86.79
2018-04-27T07:02:59.179Z,86.03
2018-04-27T07:04:04.685Z,86.12
2018-04-27T07:05:10.213Z,86.03
2018-04-27T07:06:15.708Z,86.12
2018-04-27T07:07:21.212Z,86.32
2018-04-27T07:08:26.738Z,86.41
2018-04-27T07:09:32.238Z,86.41
2018-04-27T07:10:37.745Z,86.32
2018-04-27T07:11:43.271Z,86.41
2018-04-27T07:12:48.773Z,86.60
2018-04-27T07:13:54.359Z,86.41
2018-04-27T07:14:59.793Z,85.74
2018-04-27T07:16:05.311Z,85.84
2018-04-27T07:17:10.840Z,85.46
2018-04-27T07:18:16.330Z,84.98
2018-04-27T07:19:21.849Z,84.98
2018-04-27T07:20:27.373Z,84.50
2018-04-27T07:21:32.879Z,84.88
2018-04-27T07:22:38.372Z,85.41
2018-04-27T07:23:43.882Z,84.64
2018-04-27T07:24:49.405Z,84.74
2018-04-27T07:25:54.940Z,85.02
2018-04-27T07:27:00.423Z,85.12
2018-04-27T07:28:05.932Z,84.74
2018-04-27T07:29:11.444Z,84.45
2018-04-27T07:30:16.956Z,84.07
2018-04-27T07:31:22.471Z,84.16
2018-04-27T07:32:27.977Z,83.12
2018-04-27T07:33:33.494Z,81.97
2018-04-27T07:34:38.999Z,81.40
2018-04-27T07:35:44.533Z,81.73
2018-04-27T07:36:50.027Z,82.11
2018-04-27T07:37:55.535Z,82.20
2018-04-27T07:39:01.050Z,81.35
2018-04-27T07:40:06.560Z,80.96
2018-04-27T07:41:12.074Z,81.54
2018-04-27T07:42:17.583Z,81.44
2018-04-27T07:43:23.097Z,81.92
2018-04-27T07:44:28.604Z,81.54
2018-04-27T07:45:34.117Z,81.25
2018-04-27T07:46:39.632Z,81.54
2018-04-27T07:47:45.145Z,81.77
2018-04-27T07:48:50.663Z,81.20
2018-04-27T07:49:56.174Z,80.62
2018-04-27T07:51:01.682Z,79.77
2018-04-27T07:52:07.192Z,80.53
2018-04-27T07:53:12.706Z,80.62
2018-04-27T07:54:18.216Z,80.72
2018-04-27T07:55:23.803Z,80.53
2018-04-27T07:56:29.253Z,80.38
2018-04-27T07:57:34.753Z,79.71
2018-04-27T07:58:40.266Z,79.43
2018-04-27T07:59:45.778Z,79.80
2018-04-27T08:00:51.291Z,80.09
2018-04-27T08:01:56.804Z,78.75
2018-04-27T08:03:02.316Z,79.14
2018-04-27T08:04:07.836Z,78.37
2018-04-27T08:05:13.350Z,77.80
2018-04-27T08:06:18.855Z,77.45
2018-04-27T08:07:24.371Z,76.69
2018-04-27T08:08:29.882Z,77.36
2018-04-27T08:09:35.391Z,77.26
2018-04-27T08:10:40.932Z,77.36
2018-04-27T08:11:46.427Z,76.03
2018-04-27T08:12:51.928Z,75.83
2018-04-27T08:13:57.443Z,75.54
2018-04-27T08:15:02.957Z,75.07
2018-04-27T08:16:08.480Z,75.45
2018-04-27T08:17:13.985Z,75.54
2018-04-27T08:18:19.497Z,77.01
2018-04-27T08:19:25.011Z,75.87
2018-04-27T08:20:30.519Z,75.87
2018-04-27T08:21:36.033Z,75.68
2018-04-27T08:22:41.545Z,74.82
2018-04-27T08:23:47.058Z,75.01
2018-04-27T08:24:52.570Z,75.20
2018-04-27T08:25:58.083Z,74.91
2018-04-27T08:27:03.604Z,75.59
2018-04-27T08:28:09.111Z,75.49
2018-04-27T08:29:14.627Z,75.24
2018-04-27T08:30:20.220Z,75.24
2018-04-27T08:31:25.661Z,74.19
2018-04-27T08:32:31.164Z,73.71
2018-04-27T08:33:36.678Z,74.85
2018-04-27T08:34:42.190Z,73.52
2018-04-27T08:35:47.715Z,73.33
2018-04-27T08:36:53.222Z,72.28
2018-04-27T08:37:58.732Z,70.36
2018-04-27T08:39:04.269Z,70.75
2018-04-27T08:40:09.762Z,71.61
2018-04-27T08:41:15.271Z,72.08
2018-04-27T08:42:20.790Z,72.02
2018-04-27T08:43:26.302Z,70.97
2018-04-27T08:44:31.816Z,70.97
2018-04-27T08:45:37.333Z,67.82
2018-04-27T08:46:42.860Z,66.96
2018-04-27T08:47:48.362Z,68.77
2018-04-27T08:48:53.872Z,68.20
2018-04-27T08:49:59.383Z,67.72
2018-04-27T08:51:04.895Z,65.81
2018-04-27T08:52:10.411Z,66.96
2018-04-27T08:53:15.925Z,66.28
2018-04-27T08:54:21.441Z,66.38
2018-04-27T08:55:26.962Z,66.19
2018-04-27T08:56:32.475Z,65.61
2018-04-27T08:57:37.979Z,65.33
2018-04-27T08:58:43.499Z,65.42
2018-04-27T08:59:49.015Z,64.37
2018-04-27T09:00:54.530Z,64.37
2018-04-27T09:02:00.044Z,65.90
2018-04-27T09:03:05.561Z,65.42
2018-04-27T09:04:11.066Z,66.51
2018-04-27T09:05:16.583Z,66.03
2018-04-27T09:06:22.148Z,66.13
2018-04-27T09:07:27.620Z,65.94
2018-04-27T09:08:33.126Z,64.22
2018-04-27T09:09:38.640Z,63.83
2018-04-27T09:10:44.155Z,64.22
2018-04-27T09:11:49.664Z,63.16
2018-04-27T09:12:55.187Z,62.43
2018-04-27T09:14:00.701Z,63.67
2018-04-27T09:15:06.208Z,63.76
2018-04-27T09:16:11.752Z,63.10
2018-04-27T09:17:17.242Z,62.62
2018-04-27T09:18:22.752Z,62.81
2018-04-27T09:19:28.267Z,63.39
2018-04-27T09:20:33.789Z,62.71
2018-04-27T09:21:39.311Z,63.00
2018-04-27T09:22:44.809Z,62.17
2018-04-27T09:23:50.330Z,60.80
2018-04-27T09:24:55.843Z,61.31
2018-04-27T09:26:01.363Z,60.70
2018-04-27T09:27:06.869Z,60.73
2018-04-27T09:28:12.384Z,61.40
2018-04-27T09:29:17.898Z,60.16
2018-04-27T09:30:23.418Z,60.93
2018-04-27T09:31:28.928Z,60.73
2018-04-27T09:32:34.450Z,60.93
2018-04-27T09:33:39.957Z,59.30
2018-04-27T09:34:45.472Z,58.05
2018-04-27T09:35:50.984Z,58.81
2018-04-27T09:36:56.505Z,60.25
2018-04-27T09:38:02.018Z,61.31
2018-04-27T09:39:07.528Z,61.63
2018-04-27T09:40:13.050Z,61.82
2018-04-27T09:41:18.561Z,61.05
2018-04-27T09:42:24.073Z,60.57
2018-04-27T09:43:29.589Z,58.46
2018-04-27T09:44:35.108Z,58.75
2018-04-27T09:45:40.621Z,59.23
2018-04-27T09:46:46.138Z,59.42
2018-04-27T09:47:51.656Z,58.75
2018-04-27T09:48:57.169Z,59.33
2018-04-27T09:50:02.749Z,60.38
2018-04-27T09:51:08.205Z,59.13
2018-04-27T09:52:13.708Z,58.01
2018-04-27T09:53:19.233Z,60.50
2018-04-27T09:54:24.740Z,58.49
2018-04-27T09:55:30.268Z,58.59
2018-04-27T09:56:35.779Z,58.78
2018-04-27T09:57:41.286Z,56.48
2018-04-27T09:58:46.800Z,57.63
2018-04-27T09:59:52.317Z,56.38
2018-04-27T10:00:57.839Z,56.09
2018-04-27T10:02:03.349Z,57.06
2018-04-27T10:03:08.862Z,55.62
2018-04-27T10:04:14.378Z,55.33
2018-04-27T10:05:19.898Z,54.56
2018-04-27T10:06:25.404Z,53.50
2018-04-27T10:07:30.928Z,54.94
2018-04-27T10:08:36.439Z,54.66
2018-04-27T10:09:41.954Z,55.62
2018-04-27T10:10:47.473Z,55.71
2018-04-27T10:11:52.984Z,55.16
2018-04-27T10:12:58.513Z,55.62
2018-04-27T10:14:04.018Z,55.71
2018-04-27T10:15:09.532Z,54.68
2018-04-27T10:16:15.048Z,54.88
2018-04-27T10:17:20.567Z,54.68
2018-04-27T10:18:26.084Z,55.55
2018-04-27T10:19:31.594Z,56.02
2018-04-27T10:20:37.119Z,55.35
2018-04-27T10:21:42.629Z,54.49
2018-04-27T10:22:48.243Z,53.82
2018-04-27T10:23:53.658Z,52.67
2018-04-27T10:24:59.175Z,53.72
2018-04-27T10:26:04.693Z,52.09
2018-04-27T10:27:10.214Z,52.67
2018-04-27T10:28:15.723Z,52.67
2018-04-27T10:29:21.238Z,51.14
2018-04-27T10:30:26.753Z,50.87
2018-04-27T10:31:32.271Z,51.73
2018-04-27T10:32:37.784Z,52.89
2018-04-27T10:33:43.297Z,52.02
2018-04-27T10:34:48.814Z,51.93
2018-04-27T10:35:54.338Z,53.46
2018-04-27T10:36:59.846Z,54.04
2018-04-27T10:38:05.365Z,53.27
2018-04-27T10:39:10.877Z,51.93
2018-04-27T10:40:16.402Z,51.73
2018-04-27T10:41:21.925Z,52.40
2018-04-27T10:42:27.430Z,50.58
2018-04-27T10:43:32.953Z,49.15
2018-04-27T10:44:38.463Z,50.68
2018-04-27T10:45:43.978Z,49.52
2018-04-27T10:46:49.492Z,51.95
2018-04-27T10:47:55.010Z,51.57
2018-04-27T10:49:00.525Z,51.09
2018-04-27T10:50:06.043Z,49.84
2018-04-27T10:51:11.562Z,51.47
2018-04-27T10:52:17.076Z,51.86
2018-04-27T10:53:22.589Z,50.70
2018-04-27T10:54:28.106Z,49.65
2018-04-27T10:55:33.627Z,50.23
2018-04-27T10:56:39.137Z,49.77
2018-04-27T10:57:44.653Z,49.96
2018-04-27T10:58:50.174Z,48.81
2018-04-27T10:59:55.685Z,46.09
2018-04-27T11:01:01.204Z,47.92
2018-04-27T11:02:06.725Z,47.25
2018-04-27T11:03:12.238Z,46.86
2018-04-27T11:04:17.752Z,47.63
2018-04-27T11:05:23.275Z,48.30
2018-04-27T11:06:28.786Z,47.05
2018-04-27T11:07:34.308Z,46.19
2018-04-27T11:08:39.821Z,47.05
2018-04-27T11:09:45.336Z,46.48
2018-04-27T11:10:50.857Z,47.27
2018-04-27T11:11:56.369Z,47.75
2018-04-27T11:13:01.889Z,46.89
2018-04-27T11:14:07.402Z,46.41
2018-04-27T11:15:12.921Z,46.50
2018-04-27T11:16:18.455Z,45.92
2018-04-27T11:17:23.954Z,46.98
2018-04-27T11:18:29.469Z,45.15
2018-04-27T11:19:34.985Z,44.38
2018-04-27T11:20:40.509Z,46.21
2018-04-27T11:21:46.017Z,44.87
2018-04-27T11:22:51.540Z,43.84
2018-04-27T11:23:57.052Z,46.31
2018-04-27T11:25:02.570Z,44.77
2018-04-27T11:26:08.104Z,45.15
2018-04-27T11:27:13.605Z,45.73
2018-04-27T11:28:19.117Z,46.50
2018-04-27T11:29:24.638Z,46.79
2018-04-27T11:30:30.154Z,46.50
2018-04-27T11:31:35.675Z,47.46
2018-04-27T11:32:41.192Z,44.87
2018-04-27T11:33:46.705Z,44.51
2018-04-27T11:34:52.221Z,43.93
2018-04-27T11:35:57.739Z,44.99
2018-04-27T11:37:03.254Z,46.53
2018-04-27T11:38:08.777Z,46.43
2018-04-27T11:39:14.290Z,45.56
2018-04-27T11:40:19.804Z,45.47
2018-04-27T11:41:25.318Z,45.18
2018-04-27T11:42:30.836Z,45.68
2018-04-27T11:43:36.353Z,44.91
2018-04-27T11:44:41.868Z,43.18
2018-04-27T11:45:47.397Z,41.16
2018-04-27T11:46:52.915Z,40.78
2018-04-27T11:47:58.471Z,40.11
2018-04-27T11:49:03.948Z,41.16
2018-04-27T11:50:09.460Z,43.28
2018-04-27T11:51:14.974Z,42.99
2018-04-27T11:52:20.495Z,43.95
2018-04-27T11:53:26.007Z,42.91
2018-04-27T11:54:31.529Z,40.30
2018-04-27T11:55:37.039Z,41.26
2018-04-27T11:56:42.562Z,42.53
2018-04-27T11:57:48.086Z,43.88
2018-04-27T11:58:53.597Z,46.28
2018-04-27T11:59:59.108Z,45.90
2018-04-27T12:01:04.628Z,46.67
2018-04-27T12:02:10.153Z,46.67
2018-04-27T12:03:15.665Z,42.55
2018-04-27T12:04:21.182Z,41.78
2018-04-27T12:05:26.706Z,41.78
2018-04-27T12:06:32.219Z,42.36
2018-04-27T12:07:37.729Z,42.65
2018-04-27T12:08:43.263Z,41.49
2018-04-27T12:09:48.766Z,40.53
2018-04-27T12:10:54.283Z,41.59
2018-04-27T12:11:59.803Z,42.65
2018-04-27T12:13:05.319Z,40.72
2018-04-27T12:14:10.849Z,39.95
2018-04-27T12:15:16.357Z,42.07
2018-04-27T12:16:21.881Z,41.22
2018-04-27T12:17:27.401Z,41.80
2018-04-27T12:18:32.909Z,42.47
2018-04-27T12:19:38.426Z,42.76
2018-04-27T12:20:43.944Z,42.57
2018-04-27T12:21:49.471Z,42.86
2018-04-27T12:22:54.996Z,44.04
2018-04-27T12:24:00.500Z,43.27
2018-04-27T12:25:06.017Z,43.27
2018-04-27T12:26:11.540Z,41.24
2018-04-27T12:27:17.061Z,40.47
2018-04-27T12:28:22.578Z,41.24
2018-04-27T12:29:28.103Z,43.55
2018-04-27T12:30:33.624Z,43.94
2018-04-27T12:31:39.237Z,42.79
2018-04-27T12:32:44.649Z,41.34
2018-04-27T12:33:50.167Z,41.44
2018-04-27T12:34:55.677Z,41.24
2018-04-27T12:36:01.194Z,41.72
2018-04-27T12:37:06.719Z,41.44
2018-04-27T12:38:12.235Z,41.53
2018-04-27T12:39:17.756Z,39.79
2018-04-27T12:40:23.298Z,39.89
2018-04-27T12:41:28.786Z,40.28
2018-04-27T12:42:34.303Z,39.41
2018-04-27T12:43:39.823Z,39.99
2018-04-27T12:44:45.348Z,41.34
2018-04-27T12:45:50.864Z,40.95
2018-04-27T12:46:56.380Z,41.24
2018-04-27T12:48:01.902Z,40.88
2018-04-27T12:49:07.415Z,41.14
2018-04-27T12:50:12.934Z,41.53
2018-04-27T12:51:18.453Z,41.24
2018-04-27T12:52:23.967Z,41.27
2018-04-27T12:53:29.502Z,40.11
2018-04-27T12:54:35.001Z,41.36
2018-04-27T12:55:40.526Z,41.46
2018-04-27T12:56:46.041Z,38.85
2018-04-27T12:57:51.562Z,39.53
2018-04-27T12:58:57.078Z,37.98
2018-04-27T13:00:02.607Z,38.85
2018-04-27T13:01:08.128Z,40.01
2018-04-27T13:02:13.634Z,39.43
2018-04-27T13:03:19.155Z,37.98
2018-04-27T13:04:24.680Z,37.12
2018-04-27T13:05:30.187Z,37.31
2018-04-27T13:06:35.707Z,37.60
2018-04-27T13:07:41.356Z,37.60
2018-04-27T13:08:46.754Z,37.58
2018-04-27T13:09:52.268Z,40.76
2018-04-27T13:10:57.806Z,41.63
2018-04-27T13:12:03.308Z,40.76
2018-04-27T13:13:08.818Z,40.57
2018-04-27T13:14:14.341Z,40.76
2018-04-27T13:15:19.853Z,40.09
2018-04-27T13:16:25.372Z,39.41
2018-04-27T13:17:30.894Z,40.19
2018-04-27T13:18:36.419Z,40.57
2018-04-27T13:19:41.926Z,40.37
2018-04-27T13:20:47.445Z,41.72
2018-04-27T13:21:52.967Z,43.37
2018-04-27T13:22:58.533Z,42.40
2018-04-27T13:24:04.010Z,40.88
2018-04-27T13:25:09.577Z,40.20
2018-04-27T13:26:15.133Z,39.53
2018-04-27T13:27:20.565Z,35.38
2018-04-27T13:28:26.077Z,36.15
2018-04-27T13:29:31.601Z,38.85
2018-04-27T13:30:37.113Z,39.04
2018-04-27T13:31:42.637Z,41.46
2018-04-27T13:32:48.146Z,39.72
2018-04-27T13:33:53.665Z,36.63
2018-04-27T13:34:59.186Z,35.36
2018-04-27T13:36:04.711Z,36.35
2018-04-27T13:37:10.249Z,37.58
2018-04-27T13:38:15.754Z,39.03
2018-04-27T13:39:21.260Z,39.51
2018-04-27T13:40:26.882Z,40.37
2018-04-27T13:41:32.305Z,39.41
2018-04-27T13:42:37.828Z,38.93
2018-04-27T13:43:43.340Z,38.08
2018-04-27T13:44:48.863Z,37.10
2018-04-27T13:45:54.376Z,37.89
2018-04-27T13:46:59.892Z,38.06
2018-04-27T13:48:05.406Z,37.10
2018-04-27T13:49:10.928Z,42.79
2018-04-27T13:50:16.458Z,42.49
2018-04-27T13:51:21.962Z,40.37
2018-04-27T13:52:27.480Z,40.78
2018-04-27T13:53:33.066Z,37.29
2018-04-27T13:54:38.535Z,39.14
2018-04-27T13:55:44.045Z,40.20
2018-04-27T13:56:49.556Z,40.86
2018-04-27T13:57:55.072Z,39.89
2018-04-27T13:59:00.595Z,41.72
2018-04-27T14:00:06.199Z,41.63
2018-04-27T14:01:11.626Z,42.40
2018-04-27T14:02:17.153Z,40.76
2018-04-27T14:03:22.668Z,39.89